sensor_id;sensor_type;location;lat;lon;timestamp;P1;durP1;ratioP1;P2;durP2;ratioP2
27889;SDS011;15238;49.082;9.102;2023-03-23T00:00:28;4.30;;;1.58;;
27889;SDS011;15238;49.082;9.102;2023-03-23T00:02:29;5.82;;;1.52;;
27889;SDS011;15238;49.082;9.102;2023-03-23T00:04:35;2.55;;;1.23;;
27889;SDS011;15238;49.082;9.102;2023-03-23T00:06:36;2.78;;;1.20;;
27889;SDS011;15238;49.082;9.102;2023-03-23T00:08:37;1.73;;;0.70;;
27889;SDS011;15238;49.082;9.102;2023-03-23T00:10:44;1.30;;;0.60;;
27889;SDS011;15238;49.082;9.102;2023-03-23T00:12:48;1.70;;;0.57;;
27889;SDS011;15238;49.082;9.102;2023-03-23T00:14:49;1.83;;;0.50;;
27889;SDS011;15238;49.082;9.102;2023-03-23T00:16:53;4.65;;;0.55;;
27889;SDS011;15238;49.082;9.102;2023-03-23T00:18:55;1.17;;;0.52;;
27889;SDS011;15238;49.082;9.102;2023-03-23T00:20:57;2.53;;;0.77;;
27889;SDS011;15238;49.082;9.102;2023-03-23T00:22:58;0.90;;;0.45;;
27889;SDS011;15238;49.082;9.102;2023-03-23T00:25:00;1.23;;;0.50;;
27889;SDS011;15238;49.082;9.102;2023-03-23T00:27:01;0.60;;;0.50;;
27889;SDS011;15238;49.082;9.102;2023-03-23T00:29:03;0.45;;;0.40;;
27889;SDS011;15238;49.082;9.102;2023-03-23T00:31:05;5.65;;;0.60;;
27889;SDS011;15238;49.082;9.102;2023-03-23T00:33:08;1.20;;;0.50;;
27889;SDS011;15238;49.082;9.102;2023-03-23T00:35:08;0.63;;;0.30;;
27889;SDS011;15238;49.082;9.102;2023-03-23T00:37:09;1.35;;;0.43;;
27889;SDS011;15238;49.082;9.102;2023-03-23T00:39:10;1.15;;;0.63;;
27889;SDS011;15238;49.082;9.102;2023-03-23T00:41:11;1.48;;;0.57;;
27889;SDS011;15238;49.082;9.102;2023-03-23T00:43:15;1.35;;;0.60;;
27889;SDS011;15238;49.082;9.102;2023-03-23T00:45:17;0.80;;;0.50;;
27889;SDS011;15238;49.082;9.102;2023-03-23T00:47:18;0.57;;;0.40;;
27889;SDS011;15238;49.082;9.102;2023-03-23T00:49:19;2.25;;;0.60;;
27889;SDS011;15238;49.082;9.102;2023-03-23T00:51:24;0.98;;;0.43;;
27889;SDS011;15238;49.082;9.102;2023-03-23T00:53:25;0.90;;;0.47;;
27889;SDS011;15238;49.082;9.102;2023-03-23T00:55:25;1.30;;;0.40;;
27889;SDS011;15238;49.082;9.102;2023-03-23T00:57:26;2.13;;;0.40;;
27889;SDS011;15238;49.082;9.102;2023-03-23T00:59:27;0.80;;;0.57;;
27889;SDS011;15238;49.082;9.102;2023-03-23T01:01:27;0.80;;;0.52;;
27889;SDS011;15238;49.082;9.102;2023-03-23T01:03:28;1.33;;;0.60;;
27889;SDS011;15238;49.082;9.102;2023-03-23T01:05:29;3.42;;;1.20;;
27889;SDS011;15238;49.082;9.102;2023-03-23T01:07:31;0.82;;;0.47;;
27889;SDS011;15238;49.082;9.102;2023-03-23T01:09:32;0.95;;;0.50;;
27889;SDS011;15238;49.082;9.102;2023-03-23T01:11:33;1.50;;;0.40;;
27889;SDS011;15238;49.082;9.102;2023-03-23T01:13:34;1.27;;;0.50;;
27889;SDS011;15238;49.082;9.102;2023-03-23T01:15:36;2.33;;;0.70;;
27889;SDS011;15238;49.082;9.102;2023-03-23T01:17:36;2.45;;;0.57;;
27889;SDS011;15238;49.082;9.102;2023-03-23T01:19:37;1.10;;;0.50;;
27889;SDS011;15238;49.082;9.102;2023-03-23T01:21:38;0.90;;;0.40;;
27889;SDS011;15238;49.082;9.102;2023-03-23T01:23:39;1.00;;;0.70;;
27889;SDS011;15238;49.082;9.102;2023-03-23T01:25:39;1.20;;;0.60;;
27889;SDS011;15238;49.082;9.102;2023-03-23T01:27:40;0.93;;;0.65;;
27889;SDS011;15238;49.082;9.102;2023-03-23T01:29:41;1.33;;;0.50;;
27889;SDS011;15238;49.082;9.102;2023-03-23T01:31:41;0.70;;;0.50;;
27889;SDS011;15238;49.082;9.102;2023-03-23T01:33:42;2.25;;;0.70;;
27889;SDS011;15238;49.082;9.102;2023-03-23T01:35:44;1.30;;;0.80;;
27889;SDS011;15238;49.082;9.102;2023-03-23T01:37:44;1.50;;;0.70;;
27889;SDS011;15238;49.082;9.102;2023-03-23T01:39:45;1.42;;;0.57;;
27889;SDS011;15238;49.082;9.102;2023-03-23T01:41:46;0.93;;;0.57;;
27889;SDS011;15238;49.082;9.102;2023-03-23T01:44:03;1.23;;;0.65;;
27889;SDS011;15238;49.082;9.102;2023-03-23T01:46:05;2.10;;;0.40;;
27889;SDS011;15238;49.082;9.102;2023-03-23T01:48:12;1.17;;;0.47;;
27889;SDS011;15238;49.082;9.102;2023-03-23T01:50:18;1.17;;;0.47;;
27889;SDS011;15238;49.082;9.102;2023-03-23T01:52:23;1.00;;;0.90;;
27889;SDS011;15238;49.082;9.102;2023-03-23T01:54:28;1.17;;;0.80;;
27889;SDS011;15238;49.082;9.102;2023-03-23T01:56:32;0.50;;;0.43;;
27889;SDS011;15238;49.082;9.102;2023-03-23T01:58:44;1.23;;;0.55;;
27889;SDS011;15238;49.082;9.102;2023-03-23T02:00:46;3.40;;;0.70;;
27889;SDS011;15238;49.082;9.102;2023-03-23T02:02:48;1.13;;;0.57;;
27889;SDS011;15238;49.082;9.102;2023-03-23T02:04:50;2.42;;;0.50;;
27889;SDS011;15238;49.082;9.102;2023-03-23T02:06:55;1.98;;;0.70;;
27889;SDS011;15238;49.082;9.102;2023-03-23T02:08:57;2.58;;;0.77;;
27889;SDS011;15238;49.082;9.102;2023-03-23T02:10:59;1.55;;;0.70;;
27889;SDS011;15238;49.082;9.102;2023-03-23T02:13:00;1.05;;;0.63;;
27889;SDS011;15238;49.082;9.102;2023-03-23T02:15:03;0.75;;;0.55;;
27889;SDS011;15238;49.082;9.102;2023-03-23T02:21:47;0.93;;;0.60;;
27889;SDS011;15238;49.082;9.102;2023-03-23T02:24:30;1.13;;;0.73;;
27889;SDS011;15238;49.082;9.102;2023-03-23T02:27:01;0.93;;;0.70;;
27889;SDS011;15238;49.082;9.102;2023-03-23T02:29:12;1.73;;;0.70;;
27889;SDS011;15238;49.082;9.102;2023-03-23T02:31:43;2.30;;;0.70;;
27889;SDS011;15238;49.082;9.102;2023-03-23T02:34:27;0.98;;;0.60;;
27889;SDS011;15238;49.082;9.102;2023-03-23T02:36:50;1.35;;;0.93;;
27889;SDS011;15238;49.082;9.102;2023-03-23T02:41:11;1.10;;;0.80;;
27889;SDS011;15238;49.082;9.102;2023-03-23T02:43:14;1.73;;;0.90;;
27889;SDS011;15238;49.082;9.102;2023-03-23T02:45:19;1.13;;;0.63;;
27889;SDS011;15238;49.082;9.102;2023-03-23T02:47:23;0.73;;;0.50;;
27889;SDS011;15238;49.082;9.102;2023-03-23T02:49:27;2.67;;;0.80;;
27889;SDS011;15238;49.082;9.102;2023-03-23T02:51:31;0.98;;;0.63;;
27889;SDS011;15238;49.082;9.102;2023-03-23T02:53:34;1.73;;;0.70;;
27889;SDS011;15238;49.082;9.102;2023-03-23T02:55:39;2.47;;;1.00;;
27889;SDS011;15238;49.082;9.102;2023-03-23T02:57:42;1.05;;;0.50;;
27889;SDS011;15238;49.082;9.102;2023-03-23T02:59:45;1.33;;;0.88;;
27889;SDS011;15238;49.082;9.102;2023-03-23T03:01:48;1.65;;;0.90;;
27889;SDS011;15238;49.082;9.102;2023-03-23T03:04:17;1.73;;;1.02;;
27889;SDS011;15238;49.082;9.102;2023-03-23T03:10:55;1.67;;;0.70;;
27889;SDS011;15238;49.082;9.102;2023-03-23T03:15:26;1.52;;;0.90;;
27889;SDS011;15238;49.082;9.102;2023-03-23T03:17:28;1.60;;;0.65;;
27889;SDS011;15238;49.082;9.102;2023-03-23T03:19:35;3.67;;;0.70;;
27889;SDS011;15238;49.082;9.102;2023-03-23T03:21:43;1.25;;;0.65;;
27889;SDS011;15238;49.082;9.102;2023-03-23T03:23:46;3.28;;;0.80;;
27889;SDS011;15238;49.082;9.102;2023-03-23T03:25:49;1.17;;;0.70;;
27889;SDS011;15238;49.082;9.102;2023-03-23T03:27:53;1.50;;;0.75;;
27889;SDS011;15238;49.082;9.102;2023-03-23T03:29:56;2.38;;;0.90;;
27889;SDS011;15238;49.082;9.102;2023-03-23T03:32:00;0.95;;;0.68;;
27889;SDS011;15238;49.082;9.102;2023-03-23T03:34:04;3.60;;;1.00;;
27889;SDS011;15238;49.082;9.102;2023-03-23T03:36:06;0.82;;;0.60;;
27889;SDS011;15238;49.082;9.102;2023-03-23T03:38:10;1.58;;;0.80;;
27889;SDS011;15238;49.082;9.102;2023-03-23T03:40:15;1.77;;;0.90;;
27889;SDS011;15238;49.082;9.102;2023-03-23T03:42:17;1.88;;;1.00;;
27889;SDS011;15238;49.082;9.102;2023-03-23T03:44:18;2.15;;;0.75;;
27889;SDS011;15238;49.082;9.102;2023-03-23T03:46:19;1.00;;;0.80;;
27889;SDS011;15238;49.082;9.102;2023-03-23T03:48:19;1.63;;;0.95;;
27889;SDS011;15238;49.082;9.102;2023-03-23T03:50:20;2.10;;;1.00;;
27889;SDS011;15238;49.082;9.102;2023-03-23T03:52:20;2.58;;;1.00;;
27889;SDS011;15238;49.082;9.102;2023-03-23T03:54:21;1.33;;;0.80;;
27889;SDS011;15238;49.082;9.102;2023-03-23T03:56:22;1.98;;;0.90;;
27889;SDS011;15238;49.082;9.102;2023-03-23T03:58:23;1.77;;;1.23;;
27889;SDS011;15238;49.082;9.102;2023-03-23T04:00:24;3.50;;;1.10;;
27889;SDS011;15238;49.082;9.102;2023-03-23T04:02:25;5.05;;;0.80;;
27889;SDS011;15238;49.082;9.102;2023-03-23T04:04:25;0.93;;;0.77;;
27889;SDS011;15238;49.082;9.102;2023-03-23T04:06:26;1.85;;;0.90;;
27889;SDS011;15238;49.082;9.102;2023-03-23T04:08:28;1.63;;;1.10;;
27889;SDS011;15238;49.082;9.102;2023-03-23T04:10:29;1.17;;;0.70;;
27889;SDS011;15238;49.082;9.102;2023-03-23T04:12:31;1.75;;;1.23;;
27889;SDS011;15238;49.082;9.102;2023-03-23T04:14:31;1.48;;;0.90;;
27889;SDS011;15238;49.082;9.102;2023-03-23T04:16:32;2.03;;;1.33;;
27889;SDS011;15238;49.082;9.102;2023-03-23T04:18:34;2.47;;;0.95;;
27889;SDS011;15238;49.082;9.102;2023-03-23T04:20:36;2.53;;;0.90;;
27889;SDS011;15238;49.082;9.102;2023-03-23T04:22:37;1.60;;;0.88;;
27889;SDS011;15238;49.082;9.102;2023-03-23T04:24:38;1.17;;;0.77;;
27889;SDS011;15238;49.082;9.102;2023-03-23T04:26:38;3.92;;;0.90;;
27889;SDS011;15238;49.082;9.102;2023-03-23T04:28:40;6.40;;;1.15;;
27889;SDS011;15238;49.082;9.102;2023-03-23T04:30:40;1.60;;;1.00;;
27889;SDS011;15238;49.082;9.102;2023-03-23T04:32:42;2.53;;;1.02;;
27889;SDS011;15238;49.082;9.102;2023-03-23T04:34:43;1.40;;;1.08;;
27889;SDS011;15238;49.082;9.102;2023-03-23T04:36:44;2.00;;;0.90;;
27889;SDS011;15238;49.082;9.102;2023-03-23T04:38:46;1.65;;;0.80;;
27889;SDS011;15238;49.082;9.102;2023-03-23T04:40:47;2.58;;;1.02;;
27889;SDS011;15238;49.082;9.102;2023-03-23T04:42:51;2.05;;;0.90;;
27889;SDS011;15238;49.082;9.102;2023-03-23T04:44:51;2.88;;;0.77;;
27889;SDS011;15238;49.082;9.102;2023-03-23T04:46:55;1.90;;;1.10;;
27889;SDS011;15238;49.082;9.102;2023-03-23T04:48:56;1.92;;;0.90;;
27889;SDS011;15238;49.082;9.102;2023-03-23T04:51:00;4.80;;;1.00;;
27889;SDS011;15238;49.082;9.102;2023-03-23T04:53:02;2.15;;;1.30;;
27889;SDS011;15238;49.082;9.102;2023-03-23T04:55:04;2.22;;;0.75;;
27889;SDS011;15238;49.082;9.102;2023-03-23T04:57:09;1.17;;;0.90;;
27889;SDS011;15238;49.082;9.102;2023-03-23T04:59:10;3.13;;;0.90;;
27889;SDS011;15238;49.082;9.102;2023-03-23T05:01:13;1.70;;;0.85;;
27889;SDS011;15238;49.082;9.102;2023-03-23T05:03:14;5.38;;;1.00;;
27889;SDS011;15238;49.082;9.102;2023-03-23T05:05:16;1.95;;;0.93;;
27889;SDS011;15238;49.082;9.102;2023-03-23T05:07:18;0.82;;;0.80;;
27889;SDS011;15238;49.082;9.102;2023-03-23T05:09:19;2.88;;;0.88;;
27889;SDS011;15238;49.082;9.102;2023-03-23T05:11:20;1.95;;;1.00;;
27889;SDS011;15238;49.082;9.102;2023-03-23T05:13:21;2.00;;;1.08;;
27889;SDS011;15238;49.082;9.102;2023-03-23T05:15:21;3.58;;;1.00;;
27889;SDS011;15238;49.082;9.102;2023-03-23T05:17:22;1.92;;;0.90;;
27889;SDS011;15238;49.082;9.102;2023-03-23T05:19:23;6.10;;;1.10;;
27889;SDS011;15238;49.082;9.102;2023-03-23T05:21:24;2.67;;;1.08;;
27889;SDS011;15238;49.082;9.102;2023-03-23T05:23:26;2.40;;;0.82;;
27889;SDS011;15238;49.082;9.102;2023-03-23T05:25:26;2.65;;;1.10;;
27889;SDS011;15238;49.082;9.102;2023-03-23T05:27:27;2.90;;;1.10;;
27889;SDS011;15238;49.082;9.102;2023-03-23T05:29:27;1.92;;;1.00;;
27889;SDS011;15238;49.082;9.102;2023-03-23T05:31:30;1.48;;;1.10;;
27889;SDS011;15238;49.082;9.102;2023-03-23T05:33:30;2.88;;;1.30;;
27889;SDS011;15238;49.082;9.102;2023-03-23T05:35:31;7.93;;;1.20;;
27889;SDS011;15238;49.082;9.102;2023-03-23T05:37:31;2.25;;;1.05;;
27889;SDS011;15238;49.082;9.102;2023-03-23T05:39:32;1.42;;;0.90;;
27889;SDS011;15238;49.082;9.102;2023-03-23T05:41:32;1.70;;;0.90;;
27889;SDS011;15238;49.082;9.102;2023-03-23T05:43:33;1.67;;;0.90;;
27889;SDS011;15238;49.082;9.102;2023-03-23T05:45:34;1.58;;;0.90;;
27889;SDS011;15238;49.082;9.102;2023-03-23T05:47:35;1.83;;;0.90;;
27889;SDS011;15238;49.082;9.102;2023-03-23T05:49:36;2.05;;;0.95;;
27889;SDS011;15238;49.082;9.102;2023-03-23T05:51:38;2.65;;;1.23;;
27889;SDS011;15238;49.082;9.102;2023-03-23T05:53:38;2.72;;;1.25;;
27889;SDS011;15238;49.082;9.102;2023-03-23T05:55:39;2.47;;;1.02;;
27889;SDS011;15238;49.082;9.102;2023-03-23T05:57:39;4.55;;;1.42;;
27889;SDS011;15238;49.082;9.102;2023-03-23T05:59:40;2.72;;;1.13;;
27889;SDS011;15238;49.082;9.102;2023-03-23T06:01:40;1.77;;;0.82;;
27889;SDS011;15238;49.082;9.102;2023-03-23T06:03:41;7.78;;;1.80;;
27889;SDS011;15238;49.082;9.102;2023-03-23T06:05:42;6.80;;;2.85;;
27889;SDS011;15238;49.082;9.102;2023-03-23T06:07:46;4.85;;;2.70;;
27889;SDS011;15238;49.082;9.102;2023-03-23T06:09:47;5.82;;;2.60;;
27889;SDS011;15238;49.082;9.102;2023-03-23T06:11:47;5.85;;;1.85;;
27889;SDS011;15238;49.082;9.102;2023-03-23T06:13:48;3.45;;;1.55;;
27889;SDS011;15238;49.082;9.102;2023-03-23T06:15:49;4.35;;;1.70;;
27889;SDS011;15238;49.082;9.102;2023-03-23T06:17:49;2.35;;;1.23;;
27889;SDS011;15238;49.082;9.102;2023-03-23T06:19:56;2.85;;;1.58;;
27889;SDS011;15238;49.082;9.102;2023-03-23T06:21:56;3.05;;;1.52;;
27889;SDS011;15238;49.082;9.102;2023-03-23T06:23:57;2.42;;;1.02;;
27889;SDS011;15238;49.082;9.102;2023-03-23T06:26:00;3.78;;;1.10;;
27889;SDS011;15238;49.082;9.102;2023-03-23T06:28:03;3.15;;;1.20;;
27889;SDS011;15238;49.082;9.102;2023-03-23T06:30:04;2.65;;;0.95;;
27889;SDS011;15238;49.082;9.102;2023-03-23T06:32:05;2.70;;;0.98;;
27889;SDS011;15238;49.082;9.102;2023-03-23T06:34:06;1.10;;;0.93;;
27889;SDS011;15238;49.082;9.102;2023-03-23T06:36:08;4.25;;;1.15;;
27889;SDS011;15238;49.082;9.102;2023-03-23T06:38:11;1.60;;;0.75;;
27889;SDS011;15238;49.082;9.102;2023-03-23T06:40:12;2.22;;;0.90;;
27889;SDS011;15238;49.082;9.102;2023-03-23T06:42:12;2.83;;;1.10;;
27889;SDS011;15238;49.082;9.102;2023-03-23T06:44:13;7.18;;;2.70;;
27889;SDS011;15238;49.082;9.102;2023-03-23T06:46:13;11.32;;;5.10;;
27889;SDS011;15238;49.082;9.102;2023-03-23T06:48:14;3.38;;;2.15;;
27889;SDS011;15238;49.082;9.102;2023-03-23T06:50:15;3.72;;;1.80;;
27889;SDS011;15238;49.082;9.102;2023-03-23T06:52:16;3.78;;;2.22;;
27889;SDS011;15238;49.082;9.102;2023-03-23T06:54:17;7.60;;;3.40;;
27889;SDS011;15238;49.082;9.102;2023-03-23T06:56:18;5.88;;;2.63;;
27889;SDS011;15238;49.082;9.102;2023-03-23T06:58:18;3.00;;;1.90;;
27889;SDS011;15238;49.082;9.102;2023-03-23T07:00:19;4.53;;;1.48;;
27889;SDS011;15238;49.082;9.102;2023-03-23T07:02:19;1.60;;;1.33;;
27889;SDS011;15238;49.082;9.102;2023-03-23T07:04:20;2.08;;;0.90;;
27889;SDS011;15238;49.082;9.102;2023-03-23T07:06:21;4.68;;;1.20;;
27889;SDS011;15238;49.082;9.102;2023-03-23T07:08:22;6.93;;;1.27;;
27889;SDS011;15238;49.082;9.102;2023-03-23T07:10:22;2.40;;;1.45;;
27889;SDS011;15238;49.082;9.102;2023-03-23T07:12:23;3.03;;;1.08;;
27889;SDS011;15238;49.082;9.102;2023-03-23T07:14:24;4.15;;;1.08;;
27889;SDS011;15238;49.082;9.102;2023-03-23T07:16:24;2.65;;;1.05;;
27889;SDS011;15238;49.082;9.102;2023-03-23T07:18:26;2.50;;;1.00;;
27889;SDS011;15238;49.082;9.102;2023-03-23T07:20:27;9.35;;;1.02;;
27889;SDS011;15238;49.082;9.102;2023-03-23T07:22:27;5.20;;;1.50;;
27889;SDS011;15238;49.082;9.102;2023-03-23T07:24:28;7.13;;;1.25;;
27889;SDS011;15238;49.082;9.102;2023-03-23T07:26:29;1.23;;;0.95;;
27889;SDS011;15238;49.082;9.102;2023-03-23T07:28:29;1.42;;;1.13;;
27889;SDS011;15238;49.082;9.102;2023-03-23T07:30:30;2.67;;;1.50;;
27889;SDS011;15238;49.082;9.102;2023-03-23T07:32:30;3.10;;;1.58;;
27889;SDS011;15238;49.082;9.102;2023-03-23T07:34:31;2.35;;;1.20;;
27889;SDS011;15238;49.082;9.102;2023-03-23T07:36:32;2.58;;;1.25;;
27889;SDS011;15238;49.082;9.102;2023-03-23T07:38:32;1.77;;;1.10;;
27889;SDS011;15238;49.082;9.102;2023-03-23T07:40:33;1.90;;;1.10;;
27889;SDS011;15238;49.082;9.102;2023-03-23T07:42:34;1.58;;;1.10;;
27889;SDS011;15238;49.082;9.102;2023-03-23T07:44:34;2.40;;;1.10;;
27889;SDS011;15238;49.082;9.102;2023-03-23T07:46:35;1.35;;;1.00;;
27889;SDS011;15238;49.082;9.102;2023-03-23T07:48:36;3.15;;;1.35;;
27889;SDS011;15238;49.082;9.102;2023-03-23T07:50:37;1.23;;;0.93;;
27889;SDS011;15238;49.082;9.102;2023-03-23T07:52:38;2.67;;;1.00;;
27889;SDS011;15238;49.082;9.102;2023-03-23T07:54:39;2.05;;;0.85;;
27889;SDS011;15238;49.082;9.102;2023-03-23T07:56:40;3.10;;;1.00;;
27889;SDS011;15238;49.082;9.102;2023-03-23T07:58:41;3.60;;;1.10;;
27889;SDS011;15238;49.082;9.102;2023-03-23T08:00:42;3.53;;;1.48;;
27889;SDS011;15238;49.082;9.102;2023-03-23T08:02:42;2.72;;;1.17;;
27889;SDS011;15238;49.082;9.102;2023-03-23T08:04:43;1.75;;;1.00;;
27889;SDS011;15238;49.082;9.102;2023-03-23T08:06:44;3.78;;;1.20;;
27889;SDS011;15238;49.082;9.102;2023-03-23T08:08:45;4.90;;;1.20;;
27889;SDS011;15238;49.082;9.102;2023-03-23T08:10:45;4.38;;;1.08;;
27889;SDS011;15238;49.082;9.102;2023-03-23T08:12:46;6.82;;;1.27;;
27889;SDS011;15238;49.082;9.102;2023-03-23T08:14:46;2.38;;;1.10;;
27889;SDS011;15238;49.082;9.102;2023-03-23T08:16:48;2.25;;;0.95;;
27889;SDS011;15238;49.082;9.102;2023-03-23T08:18:48;3.15;;;1.50;;
27889;SDS011;15238;49.082;9.102;2023-03-23T08:20:49;2.03;;;1.02;;
27889;SDS011;15238;49.082;9.102;2023-03-23T08:22:51;3.38;;;1.00;;
27889;SDS011;15238;49.082;9.102;2023-03-23T08:24:54;2.45;;;1.27;;
27889;SDS011;15238;49.082;9.102;2023-03-23T08:26:55;4.40;;;1.30;;
27889;SDS011;15238;49.082;9.102;2023-03-23T08:28:55;3.80;;;0.95;;
27889;SDS011;15238;49.082;9.102;2023-03-23T08:30:57;6.25;;;1.08;;
27889;SDS011;15238;49.082;9.102;2023-03-23T08:32:58;3.40;;;1.20;;
27889;SDS011;15238;49.082;9.102;2023-03-23T08:35:00;2.10;;;1.05;;
27889;SDS011;15238;49.082;9.102;2023-03-23T08:37:01;5.13;;;1.30;;
27889;SDS011;15238;49.082;9.102;2023-03-23T08:39:03;2.15;;;0.90;;
27889;SDS011;15238;49.082;9.102;2023-03-23T08:41:05;2.80;;;1.20;;
27889;SDS011;15238;49.082;9.102;2023-03-23T08:43:07;1.77;;;0.95;;
27889;SDS011;15238;49.082;9.102;2023-03-23T08:45:09;2.00;;;1.20;;
27889;SDS011;15238;49.082;9.102;2023-03-23T08:47:11;2.90;;;1.30;;
27889;SDS011;15238;49.082;9.102;2023-03-23T08:49:11;4.32;;;1.08;;
27889;SDS011;15238;49.082;9.102;2023-03-23T08:51:12;3.25;;;1.15;;
27889;SDS011;15238;49.082;9.102;2023-03-23T08:53:13;1.45;;;0.80;;
27889;SDS011;15238;49.082;9.102;2023-03-23T08:55:14;2.08;;;1.10;;
27889;SDS011;15238;49.082;9.102;2023-03-23T08:57:15;2.03;;;1.33;;
27889;SDS011;15238;49.082;9.102;2023-03-23T08:59:15;3.17;;;1.10;;
27889;SDS011;15238;49.082;9.102;2023-03-23T09:01:16;3.08;;;1.10;;
27889;SDS011;15238;49.082;9.102;2023-03-23T09:03:16;1.52;;;0.82;;
27889;SDS011;15238;49.082;9.102;2023-03-23T09:05:18;4.22;;;1.20;;
27889;SDS011;15238;49.082;9.102;2023-03-23T09:07:21;2.05;;;1.27;;
27889;SDS011;15238;49.082;9.102;2023-03-23T09:09:22;2.05;;;1.10;;
27889;SDS011;15238;49.082;9.102;2023-03-23T09:11:22;2.35;;;1.23;;
27889;SDS011;15238;49.082;9.102;2023-03-23T09:13:23;3.83;;;1.20;;
27889;SDS011;15238;49.082;9.102;2023-03-23T09:15:24;1.67;;;1.10;;
27889;SDS011;15238;49.082;9.102;2023-03-23T09:17:24;5.93;;;1.50;;
27889;SDS011;15238;49.082;9.102;2023-03-23T09:19:25;2.67;;;1.20;;
27889;SDS011;15238;49.082;9.102;2023-03-23T09:21:26;4.20;;;1.30;;
27889;SDS011;15238;49.082;9.102;2023-03-23T09:23:28;4.05;;;1.38;;
27889;SDS011;15238;49.082;9.102;2023-03-23T09:25:30;2.08;;;1.30;;
27889;SDS011;15238;49.082;9.102;2023-03-23T09:27:30;3.78;;;1.00;;
27889;SDS011;15238;49.082;9.102;2023-03-23T09:29:31;2.03;;;1.13;;
27889;SDS011;15238;49.082;9.102;2023-03-23T09:31:31;2.50;;;1.20;;
27889;SDS011;15238;49.082;9.102;2023-03-23T09:33:32;8.25;;;1.10;;
27889;SDS011;15238;49.082;9.102;2023-03-23T09:35:36;1.60;;;1.10;;
27889;SDS011;15238;49.082;9.102;2023-03-23T09:37:38;4.40;;;0.90;;
27889;SDS011;15238;49.082;9.102;2023-03-23T09:39:40;1.80;;;0.90;;
27889;SDS011;15238;49.082;9.102;2023-03-23T09:46:35;3.42;;;1.10;;
27889;SDS011;15238;49.082;9.102;2023-03-23T09:48:53;2.70;;;0.93;;
27889;SDS011;15238;49.082;9.102;2023-03-23T09:51:09;2.05;;;1.20;;
27889;SDS011;15238;49.082;9.102;2023-03-23T09:53:34;1.75;;;1.02;;
27889;SDS011;15238;49.082;9.102;2023-03-23T09:55:39;1.83;;;1.08;;
27889;SDS011;15238;49.082;9.102;2023-03-23T09:57:45;2.80;;;1.00;;
27889;SDS011;15238;49.082;9.102;2023-03-23T09:59:56;1.88;;;1.02;;
27889;SDS011;15238;49.082;9.102;2023-03-23T10:01:59;2.30;;;1.10;;
27889;SDS011;15238;49.082;9.102;2023-03-23T10:04:21;2.47;;;1.23;;
27889;SDS011;15238;49.082;9.102;2023-03-23T10:06:31;3.08;;;1.40;;
27889;SDS011;15238;49.082;9.102;2023-03-23T10:08:32;1.80;;;0.98;;
27889;SDS011;15238;49.082;9.102;2023-03-23T10:12:49;3.08;;;1.38;;
27889;SDS011;15238;49.082;9.102;2023-03-23T10:15:13;2.63;;;1.73;;
27889;SDS011;15238;49.082;9.102;2023-03-23T10:24:34;2.00;;;1.20;;
27889;SDS011;15238;49.082;9.102;2023-03-23T10:26:44;2.28;;;1.23;;
27889;SDS011;15238;49.082;9.102;2023-03-23T10:29:12;4.75;;;1.90;;
27889;SDS011;15238;49.082;9.102;2023-03-23T10:31:22;2.22;;;1.38;;
27889;SDS011;15238;49.082;9.102;2023-03-23T10:33:36;2.42;;;1.33;;
27889;SDS011;15238;49.082;9.102;2023-03-23T10:35:53;2.80;;;1.02;;
27889;SDS011;15238;49.082;9.102;2023-03-23T10:38:03;2.40;;;1.10;;
27889;SDS011;15238;49.082;9.102;2023-03-23T10:40:12;1.40;;;0.88;;
27889;SDS011;15238;49.082;9.102;2023-03-23T10:42:23;1.77;;;1.17;;
27889;SDS011;15238;49.082;9.102;2023-03-23T10:44:26;3.30;;;0.90;;
27889;SDS011;15238;49.082;9.102;2023-03-23T10:46:47;3.05;;;1.15;;
27889;SDS011;15238;49.082;9.102;2023-03-23T10:49:05;1.20;;;0.85;;
27889;SDS011;15238;49.082;9.102;2023-03-23T10:51:12;2.80;;;0.80;;
27889;SDS011;15238;49.082;9.102;2023-03-23T10:53:19;2.58;;;0.90;;
27889;SDS011;15238;49.082;9.102;2023-03-23T10:55:23;2.67;;;1.20;;
27889;SDS011;15238;49.082;9.102;2023-03-23T10:57:35;1.52;;;0.90;;
27889;SDS011;15238;49.082;9.102;2023-03-23T10:59:39;1.42;;;0.85;;
27889;SDS011;15238;49.082;9.102;2023-03-23T11:01:42;2.45;;;0.90;;
27889;SDS011;15238;49.082;9.102;2023-03-23T11:03:46;1.35;;;0.82;;
27889;SDS011;15238;49.082;9.102;2023-03-23T11:05:53;2.75;;;1.25;;
27889;SDS011;15238;49.082;9.102;2023-03-23T11:07:57;1.45;;;0.60;;
27889;SDS011;15238;49.082;9.102;2023-03-23T11:10:04;1.15;;;0.90;;
27889;SDS011;15238;49.082;9.102;2023-03-23T11:12:16;1.60;;;0.95;;
27889;SDS011;15238;49.082;9.102;2023-03-23T11:14:19;1.45;;;1.10;;
27889;SDS011;15238;49.082;9.102;2023-03-23T11:16:25;1.17;;;0.80;;
27889;SDS011;15238;49.082;9.102;2023-03-23T11:20:37;0.80;;;0.80;;
27889;SDS011;15238;49.082;9.102;2023-03-23T11:22:42;1.52;;;0.80;;
27889;SDS011;15238;49.082;9.102;2023-03-23T11:24:43;1.00;;;0.75;;
27889;SDS011;15238;49.082;9.102;2023-03-23T11:26:47;3.63;;;0.90;;
27889;SDS011;15238;49.082;9.102;2023-03-23T11:28:51;1.65;;;0.80;;
27889;SDS011;15238;49.082;9.102;2023-03-23T11:30:54;1.35;;;0.77;;
27889;SDS011;15238;49.082;9.102;2023-03-23T11:32:58;1.70;;;1.08;;
27889;SDS011;15238;49.082;9.102;2023-03-23T11:35:01;0.95;;;0.70;;
27889;SDS011;15238;49.082;9.102;2023-03-23T11:39:46;5.55;;;1.00;;
27889;SDS011;15238;49.082;9.102;2023-03-23T11:41:49;2.25;;;1.10;;
27889;SDS011;15238;49.082;9.102;2023-03-23T11:43:51;1.13;;;0.82;;
27889;SDS011;15238;49.082;9.102;2023-03-23T11:48:45;1.35;;;0.73;;
27889;SDS011;15238;49.082;9.102;2023-03-23T11:50:26;0.95;;;0.77;;
27889;SDS011;15238;49.082;9.102;2023-03-23T11:54:39;2.13;;;0.95;;
27889;SDS011;15238;49.082;9.102;2023-03-23T11:56:45;1.27;;;0.88;;
27889;SDS011;15238;49.082;9.102;2023-03-23T11:58:47;4.50;;;1.83;;
27889;SDS011;15238;49.082;9.102;2023-03-23T12:00:55;1.23;;;0.90;;
27889;SDS011;15238;49.082;9.102;2023-03-23T12:05:49;2.58;;;0.73;;
27889;SDS011;15238;49.082;9.102;2023-03-23T12:10:24;1.83;;;1.17;;
27889;SDS011;15238;49.082;9.102;2023-03-23T12:15:25;1.60;;;0.90;;
27889;SDS011;15238;49.082;9.102;2023-03-23T12:29:16;2.58;;;1.27;;
27889;SDS011;15238;49.082;9.102;2023-03-23T12:45:24;2.75;;;1.05;;
27889;SDS011;15238;49.082;9.102;2023-03-23T12:47:46;2.58;;;0.80;;
27889;SDS011;15238;49.082;9.102;2023-03-23T12:49:52;2.45;;;1.08;;
27889;SDS011;15238;49.082;9.102;2023-03-23T12:54:26;3.03;;;1.30;;
27889;SDS011;15238;49.082;9.102;2023-03-23T12:56:41;6.22;;;1.30;;
27889;SDS011;15238;49.082;9.102;2023-03-23T12:59:03;2.35;;;1.25;;
27889;SDS011;15238;49.082;9.102;2023-03-23T13:01:16;2.03;;;1.30;;
27889;SDS011;15238;49.082;9.102;2023-03-23T13:06:00;2.45;;;1.30;;
27889;SDS011;15238;49.082;9.102;2023-03-23T13:08:10;2.15;;;1.13;;
27889;SDS011;15238;49.082;9.102;2023-03-23T13:10:22;2.30;;;1.38;;
27889;SDS011;15238;49.082;9.102;2023-03-23T13:12:32;2.53;;;1.30;;
27889;SDS011;15238;49.082;9.102;2023-03-23T13:14:41;1.80;;;1.20;;
27889;SDS011;15238;49.082;9.102;2023-03-23T13:19:06;2.17;;;1.30;;
27889;SDS011;15238;49.082;9.102;2023-03-23T13:23:28;2.35;;;1.10;;
27889;SDS011;15238;49.082;9.102;2023-03-23T13:27:57;1.92;;;1.30;;
27889;SDS011;15238;49.082;9.102;2023-03-23T13:29:59;2.30;;;1.25;;
27889;SDS011;15238;49.082;9.102;2023-03-23T13:32:06;1.83;;;1.40;;
27889;SDS011;15238;49.082;9.102;2023-03-23T13:34:26;2.40;;;1.30;;
27889;SDS011;15238;49.082;9.102;2023-03-23T13:36:35;7.90;;;1.33;;
27889;SDS011;15238;49.082;9.102;2023-03-23T13:38:38;1.90;;;1.13;;
27889;SDS011;15238;49.082;9.102;2023-03-23T13:40:45;1.83;;;1.08;;
27889;SDS011;15238;49.082;9.102;2023-03-23T13:42:49;1.52;;;1.10;;
27889;SDS011;15238;49.082;9.102;2023-03-23T13:46:56;2.15;;;1.35;;
27889;SDS011;15238;49.082;9.102;2023-03-23T13:51:25;1.52;;;0.95;;
27889;SDS011;15238;49.082;9.102;2023-03-23T13:53:44;3.13;;;1.50;;